Saint Paul, MN

04:13 CDT le 02 septembre 2014 (GMT -0500)
Mounds Park, East Metro | Change Station
CLOSE
Current Station
Stations météorologiques personnelles
Location: Saint Paul, MN
Altitude: 850 ft
Stations météo à proximité

Alt. 850 ft 44.95 °N, 93.06 °W | Updated 3 minutes ago

Clear
Ciel dégagé
62.3 ° F
Paraît 62.3 ° F
N
0.0
Vent Variable Vent de ENE
Gusts 1.0 mph

Aujourd'hui
Haut(e) -- | Bas -- ° F
--% Risque de précip.
Hier
Haut(e) -- | Bas -- ° F
Precip. -- pouce
6:35 AM 7:47 PM
Lune montante, 49% visible
Pression 29.81 pouce
Visibilité 10.0 Miles terrestres
Nuages Ciel dégagé
Point de rosée 56 ° F
Humidité 81%
Précipitations -999.00 pouce
Profondeur de la couche neigeuse Non disponible.
UV 0 sur 12
Pollen 6.30 sur 12
Ozone Bon
PM2.5 Bon
Flu Activity Non disponible.
METAR KSTP 020853Z AUTO 00000KT 10SM CLR 18/16 A2983 RMK AO2 SLP094 T01780156 53003

More Conditions Fewer Conditions

Pression 29.81 pouce
Visibilité 10.0 Miles terrestres
Nuages Ciel dégagé
Point de rosée 56 ° F
Humidité 81%
Précipitations -999.00 pouce
Profondeur de la couche neigeuse Non disponible.
UV 0 sur 12
Pollen 6.30 sur 12
Ozone Bon
PM2.5 Bon
Flu Activity Non disponible.
METAR KSTP 020853Z AUTO 00000KT 10SM CLR 18/16 A2983 RMK AO2 SLP094 T01780156 53003

More Conditions Fewer Conditions

10-Day Weather Forecast

Almanac

Astronomie

Sep. 02, 2014 Lever Coucher
Temps réel 06:35 CDT 19:47 CDT
Crépuscule civil 06:05 CDT 20:17 CDT
Crépuscule nautique 05:29 CDT 20:53 CDT
Crépuscule astronomique 04:50 CDT 21:32 CDT
Lune 14:39 CDT Pas de coucher de lune
Durée de lumière visible 14h 12m
Longueur du jour
13h 11m
Tomorrow will be 3m 2s shorter.
Lune montante, 49% of the Moon is Illuminated
Aujourd'hui
Lune montante
Sep 2
Premier quartier
Sep 8
Pleine lune
Sep 15
Dernier quartier
Sep 24
Nouveau

Extrêmes aujourd'hui

State Highs State Lows

Community

WunderPhotos

Upload Photos

1,749,587 Photos téléchargées !

WunderBlogs® & News

Nearby

Qualité de l'air

  Qualité de l'air Indice de la qualité de l'air Polluant
Hier Bon
OZONE
Hier Bon
PM2.5
Actuel Bon
PM2.5
Actuel Bon
OZONE
mardi Bon
OZONE
mardi Bon
PM2.5
mercredi Bon
OZONE
mercredi Bon
PM2.5
jeudi Bon
PM2.5
jeudi Bon
OZONE
vendredi Bon
OZONE
vendredi Bon
PM2.5

Épaisseur de neige

Station Depth Altitude
Pas de nouvelles chutes de neige

Activité sismique

Ville Distance Mag. Time & Date
No recent earthquake activity has been reported nearby.
Minimum magnitude displayed is 2.5.

Températures des eaux côtières

Lieu Température
Aucun rapport de station

Stations météo à proximité